Terminal Aerodrome Forecast
Issued by NWS

Home | Current Version | Previous Version | Text Only | Print | Product List | Glossary On
Versions: 1 2 3 4 5 6 7 8 9 10 11 12 13 14 15
602
FTAK31 PAJN 060523
TAFAJN
TAF
PAJN 060523Z 0606/0706 10010KT 6SM -RA SCT010 OVC035
     FM060900 11015G24KT 5SM -RA SCT020 OVC040 WS020/18035KT
     FM061400 10017G28KT 4SM RA BR FEW007 BKN020 OVC030
      WS020/18035KT
     FM062100 10014G21KT 5SM -RA FEW007 BKN025 OVC035 WS020/18035KT
     FM062300 10012KT 6SM -SHRA FEW010 BKN025 OVC035=

USA.gov is the U.S. government's official web portal to all federal, state and local government web resources and services.